createdAt,value
2023-01-10T01:18:32.409Z,5.2
2023-01-10T01:23:38.276Z,5.2
2023-01-10T01:28:44.187Z,5.3
2023-01-10T01:33:50.702Z,5.3
2023-01-10T01:38:57.269Z,5.3
2023-01-10T01:44:03.843Z,5.2
2023-01-10T01:49:10.420Z,5.2
2023-01-10T01:54:16.989Z,5.2
2023-01-10T01:59:23.558Z,5.1
2023-01-10T02:04:30.123Z,5
2023-01-10T02:09:36.696Z,5
2023-01-10T02:14:43.257Z,4.9
2023-01-10T02:19:49.843Z,4.9
2023-01-10T02:24:55.713Z,4.9
2023-01-10T02:30:02.305Z,4.8
2023-01-10T02:35:08.872Z,4.8
2023-01-10T02:40:15.463Z,4.8
2023-01-10T02:45:22.015Z,4.9
2023-01-10T02:50:28.580Z,4.9
2023-01-10T02:55:35.145Z,4.8
2023-01-10T03:00:41.715Z,4.9
2023-01-10T03:05:48.297Z,4.9
2023-01-10T03:10:54.872Z,4.9
2023-01-10T03:16:01.422Z,4.9
2023-01-10T03:21:07.368Z,4.9
2023-01-10T03:26:13.936Z,4.9
2023-01-10T03:31:20.493Z,4.9
2023-01-10T03:36:27.087Z,4.9
2023-01-10T03:41:32.917Z,4.9
2023-01-10T03:46:39.478Z,4.9
2023-01-10T03:51:46.063Z,4.8
2023-01-10T03:56:52.620Z,4.8
2023-01-10T04:01:59.194Z,4.9
2023-01-10T04:07:05.768Z,4.8
2023-01-10T04:12:12.359Z,4.7
2023-01-10T04:17:18.906Z,4.7
2023-01-10T04:22:25.493Z,4.7
2023-01-10T04:27:32.060Z,4.8
2023-01-10T04:32:38.658Z,4.7
2023-01-10T04:37:45.207Z,4.7
2023-01-10T04:42:51.782Z,4.7
2023-01-10T04:47:58.341Z,4.7
2023-01-10T04:53:04.189Z,4.7
2023-01-10T04:58:10.756Z,4.7
2023-01-10T05:08:23.907Z,4.7
2023-01-10T05:13:30.471Z,4.7
2023-01-10T05:18:37.038Z,4.7
2023-01-10T05:23:43.608Z,4.7
2023-01-10T05:28:50.194Z,4.8
2023-01-10T05:33:56.801Z,4.7
2023-01-10T05:39:03.317Z,4.7
2023-01-10T05:44:09.901Z,4.6
2023-01-10T05:49:16.469Z,4.6
2023-01-10T05:54:23.038Z,4.6
2023-01-10T05:59:28.880Z,4.5
2023-01-10T06:04:35.450Z,4.4
2023-01-10T06:09:42.086Z,4.2
2023-01-10T06:14:48.668Z,4.2
2023-01-10T06:19:55.278Z,4.3
2023-01-10T06:25:01.737Z,4.5
2023-01-10T06:30:08.344Z,4.5
2023-01-10T06:35:14.887Z,4.5
2023-01-10T06:40:21.461Z,4.5
2023-01-10T06:45:28.140Z,4.5
